TSC34M EGPH-EGSS
Flight info
| Callsign | TSC34M |
|---|---|
| Flight time | 0h 59m |
| Altitude | 33000 |
| Route | GOSAM P600 FENIK L612 NAVSO DCT AKOMU DCT VAMEB UL612 LISTO |
| Aircraft | A321/M-SDE3FGHIRWY/LB1 |
Departure
| Time | 2026-04-24 02:22 |
|---|---|
| Airport | Edinburgh Airport (EGPH) |
Arrival
| Time | 2026-04-24 03:21 |
|---|---|
| Airport | London Stansted Airport (EGSS) |
| Time | Latitude | Longitude | Altitude | Speed | Heading |
|---|---|---|---|---|---|
| 2026-04-24 01:44 | 55.94657 | -3.36616 | 116 ft | 0 kts | 88° |
| 2026-04-24 02:12 | 55.94657 | -3.36617 | 116 ft | 1 kts | 88° |
| 2026-04-24 02:12 | 55.94655 | -3.36660 | 115 ft | 4 kts | 77° |
| 2026-04-24 02:12 | 55.94646 | -3.36705 | 116 ft | 4 kts | 56° |
| 2026-04-24 02:12 | 55.94629 | -3.36733 | 114 ft | 4 kts | 8° |
| 2026-04-24 02:13 | 55.94619 | -3.36735 | 116 ft | 0 kts | 360° |
| 2026-04-24 02:15 | 55.94628 | -3.36735 | 114 ft | 5 kts | 360° |
| 2026-04-24 02:15 | 55.94679 | -3.36735 | 114 ft | 8 kts | 359° |
| 2026-04-24 02:15 | 55.94741 | -3.36740 | 113 ft | 10 kts | 353° |
| 2026-04-24 02:15 | 55.94801 | -3.36775 | 115 ft | 9 kts | 346° |
| 2026-04-24 02:16 | 55.94854 | -3.36779 | 116 ft | 8 kts | 359° |
| 2026-04-24 02:16 | 55.94908 | -3.36817 | 116 ft | 9 kts | 327° |
| 2026-04-24 02:16 | 55.94917 | -3.36923 | 116 ft | 10 kts | 244° |
| 2026-04-24 02:16 | 55.94878 | -3.37037 | 116 ft | 11 kts | 239° |
| 2026-04-24 02:17 | 55.94834 | -3.37166 | 115 ft | 13 kts | 239° |
| 2026-04-24 02:17 | 55.94786 | -3.37310 | 113 ft | 14 kts | 239° |
| 2026-04-24 02:17 | 55.94732 | -3.37467 | 115 ft | 15 kts | 238° |
| 2026-04-24 02:17 | 55.94674 | -3.37636 | 114 ft | 17 kts | 239° |
| 2026-04-24 02:18 | 55.94613 | -3.37818 | 115 ft | 18 kts | 239° |
| 2026-04-24 02:18 | 55.94547 | -3.38012 | 112 ft | 19 kts | 239° |
| 2026-04-24 02:18 | 55.94478 | -3.38216 | 116 ft | 20 kts | 239° |
| 2026-04-24 02:18 | 55.94422 | -3.38380 | 112 ft | 12 kts | 238° |
| 2026-04-24 02:19 | 55.94385 | -3.38489 | 116 ft | 0 kts | 238° |
| 2026-04-24 02:19 | 55.94373 | -3.38521 | 113 ft | 9 kts | 239° |
| 2026-04-24 02:19 | 55.94334 | -3.38637 | 113 ft | 12 kts | 239° |
| 2026-04-24 02:19 | 55.94296 | -3.38751 | 112 ft | 3 kts | 239° |
| 2026-04-24 02:20 | 55.94282 | -3.38797 | 114 ft | 5 kts | 250° |
| 2026-04-24 02:20 | 55.94294 | -3.38873 | 113 ft | 7 kts | 313° |
| 2026-04-24 02:20 | 55.94349 | -3.38935 | 112 ft | 11 kts | 328° |
| 2026-04-24 02:20 | 55.94411 | -3.38983 | 114 ft | 3 kts | 30° |
| 2026-04-24 02:21 | 55.94428 | -3.38935 | 114 ft | 6 kts | 58° |
| 2026-04-24 02:21 | 55.94465 | -3.38827 | 112 ft | 24 kts | 59° |
| 2026-04-24 02:21 | 55.94709 | -3.38108 | 115 ft | 108 kts | 59° |
| 2026-04-24 02:21 | 55.95219 | -3.36609 | 160 ft | 169 kts | 58° |
| 2026-04-24 02:22 | 55.95866 | -3.34789 | 887 ft | 178 kts | 52° |
| 2026-04-24 02:22 | 55.96760 | -3.33196 | 1679 ft | 187 kts | 41° |
| 2026-04-24 02:22 | 55.97753 | -3.31613 | 2337 ft | 195 kts | 42° |
| 2026-04-24 02:22 | 55.98792 | -3.29923 | 2784 ft | 205 kts | 42° |
| 2026-04-24 02:23 | 55.99959 | -3.28424 | 3278 ft | 213 kts | 21° |
| 2026-04-24 02:23 | 56.01479 | -3.28272 | 3527 ft | 231 kts | 343° |
| 2026-04-24 02:23 | 56.02799 | -3.29900 | 4011 ft | 237 kts | 305° |
| 2026-04-24 02:23 | 56.03284 | -3.32068 | 4451 ft | 238 kts | 275° |
| 2026-04-24 02:24 | 56.03285 | -3.32077 | 4575 ft | 238 kts | 275° |
| 2026-04-24 02:24 | 56.03070 | -3.35004 | 5159 ft | 238 kts | 255° |
| 2026-04-24 02:24 | 56.02663 | -3.37874 | 5743 ft | 242 kts | 254° |
| 2026-04-24 02:24 | 56.02215 | -3.40903 | 5966 ft | 261 kts | 254° |
| 2026-04-24 02:25 | 56.01749 | -3.44050 | 6016 ft | 267 kts | 254° |
| 2026-04-24 02:25 | 56.01279 | -3.47262 | 6013 ft | 268 kts | 255° |
| 2026-04-24 02:25 | 56.00811 | -3.50507 | 6594 ft | 270 kts | 255° |
| 2026-04-24 02:25 | 56.00347 | -3.53755 | 7332 ft | 271 kts | 255° |
| 2026-04-24 02:26 | 55.99882 | -3.57036 | 8040 ft | 273 kts | 255° |
| 2026-04-24 02:26 | 55.99414 | -3.60342 | 8737 ft | 275 kts | 256° |
| 2026-04-24 02:26 | 55.98942 | -3.63671 | 9441 ft | 278 kts | 256° |
| 2026-04-24 02:26 | 55.98463 | -3.67031 | 10140 ft | 280 kts | 256° |
| 2026-04-24 02:27 | 55.97978 | -3.70426 | 10680 ft | 288 kts | 256° |
| 2026-04-24 02:27 | 55.97463 | -3.74021 | 10812 ft | 310 kts | 256° |
| 2026-04-24 02:27 | 55.96909 | -3.77865 | 10935 ft | 330 kts | 256° |
| 2026-04-24 02:27 | 55.96318 | -3.81958 | 11062 ft | 348 kts | 256° |
| 2026-04-24 02:28 | 55.95706 | -3.86152 | 11397 ft | 358 kts | 256° |
| 2026-04-24 02:28 | 55.95072 | -3.90472 | 11924 ft | 362 kts | 256° |
| 2026-04-24 02:28 | 55.94434 | -3.94839 | 12474 ft | 366 kts | 256° |
| 2026-04-24 02:28 | 55.93614 | -3.99151 | 13013 ft | 370 kts | 244° |
| 2026-04-24 02:29 | 55.92213 | -4.03012 | 13542 ft | 374 kts | 230° |
| 2026-04-24 02:29 | 55.90277 | -4.06125 | 14069 ft | 378 kts | 216° |
| 2026-04-24 02:29 | 55.88093 | -4.08775 | 14563 ft | 381 kts | 215° |
| 2026-04-24 02:29 | 55.85886 | -4.11454 | 15031 ft | 384 kts | 215° |
| 2026-04-24 02:30 | 55.83674 | -4.14148 | 15540 ft | 387 kts | 215° |
| 2026-04-24 02:30 | 55.81448 | -4.16865 | 16028 ft | 390 kts | 215° |
| 2026-04-24 02:30 | 55.79204 | -4.19613 | 16519 ft | 393 kts | 215° |
| 2026-04-24 02:30 | 55.76892 | -4.22221 | 16971 ft | 396 kts | 207° |
| 2026-04-24 02:31 | 55.74306 | -4.23942 | 17411 ft | 399 kts | 194° |
| 2026-04-24 02:31 | 55.71553 | -4.24627 | 17863 ft | 402 kts | 182° |
| 2026-04-24 02:31 | 55.68752 | -4.24343 | 18315 ft | 405 kts | 171° |
| 2026-04-24 02:31 | 55.66009 | -4.23127 | 18758 ft | 408 kts | 161° |
| 2026-04-24 02:32 | 55.63395 | -4.21144 | 19137 ft | 411 kts | 152° |
| 2026-04-24 02:32 | 55.60884 | -4.18695 | 19540 ft | 413 kts | 151° |
| 2026-04-24 02:32 | 55.58364 | -4.16234 | 19964 ft | 414 kts | 152° |
| 2026-04-24 02:32 | 55.55841 | -4.13775 | 20389 ft | 415 kts | 152° |
| 2026-04-24 02:33 | 55.53304 | -4.11311 | 20799 ft | 416 kts | 152° |
| 2026-04-24 02:33 | 55.50792 | -4.08872 | 21185 ft | 419 kts | 151° |
| 2026-04-24 02:33 | 55.48232 | -4.06387 | 21577 ft | 420 kts | 151° |
| 2026-04-24 02:33 | 55.45667 | -4.03895 | 22011 ft | 421 kts | 151° |
| 2026-04-24 02:34 | 55.43093 | -4.01389 | 22360 ft | 425 kts | 150° |
| 2026-04-24 02:34 | 55.40497 | -3.98869 | 22717 ft | 428 kts | 150° |
| 2026-04-24 02:34 | 55.37881 | -3.96338 | 23101 ft | 429 kts | 150° |
| 2026-04-24 02:34 | 55.35258 | -3.93807 | 23477 ft | 431 kts | 150° |
| 2026-04-24 02:35 | 55.32620 | -3.91263 | 23820 ft | 434 kts | 150° |
| 2026-04-24 02:35 | 55.29970 | -3.88706 | 24149 ft | 436 kts | 150° |
| 2026-04-24 02:35 | 55.27304 | -3.86141 | 24455 ft | 438 kts | 150° |
| 2026-04-24 02:35 | 55.24625 | -3.83571 | 24717 ft | 441 kts | 150° |
| 2026-04-24 02:36 | 55.21954 | -3.81021 | 24992 ft | 443 kts | 151° |
| 2026-04-24 02:36 | 55.19212 | -3.78518 | 25282 ft | 446 kts | 152° |
| 2026-04-24 02:36 | 55.16421 | -3.76094 | 25562 ft | 448 kts | 153° |
| 2026-04-24 02:36 | 55.13602 | -3.73719 | 25844 ft | 451 kts | 153° |
| 2026-04-24 02:37 | 55.10768 | -3.71356 | 26138 ft | 453 kts | 153° |
| 2026-04-24 02:37 | 55.07919 | -3.68976 | 26413 ft | 455 kts | 153° |
| 2026-04-24 02:37 | 55.05062 | -3.66565 | 26691 ft | 457 kts | 153° |
| 2026-04-24 02:37 | 55.02195 | -3.64122 | 26953 ft | 459 kts | 153° |
| 2026-04-24 02:38 | 54.99326 | -3.61661 | 27207 ft | 461 kts | 153° |
| 2026-04-24 02:38 | 54.96440 | -3.59183 | 27460 ft | 463 kts | 153° |
| 2026-04-24 02:38 | 54.93540 | -3.56706 | 27669 ft | 465 kts | 152° |
| 2026-04-24 02:38 | 54.90624 | -3.54227 | 27874 ft | 468 kts | 153° |
| 2026-04-24 02:39 | 54.87697 | -3.51748 | 28080 ft | 469 kts | 153° |
| 2026-04-24 02:39 | 54.84754 | -3.49255 | 28308 ft | 470 kts | 153° |
| 2026-04-24 02:39 | 54.81818 | -3.46774 | 28614 ft | 469 kts | 153° |
| 2026-04-24 02:39 | 54.78881 | -3.44295 | 28894 ft | 469 kts | 153° |
| 2026-04-24 02:40 | 54.75947 | -3.41824 | 29180 ft | 469 kts | 153° |
| 2026-04-24 02:40 | 54.73013 | -3.39358 | 29471 ft | 469 kts | 153° |
| 2026-04-24 02:40 | 54.70076 | -3.36896 | 29776 ft | 469 kts | 152° |
| 2026-04-24 02:40 | 54.67139 | -3.34439 | 30043 ft | 469 kts | 152° |
| 2026-04-24 02:41 | 54.64199 | -3.31987 | 30314 ft | 469 kts | 152° |
| 2026-04-24 02:41 | 54.61294 | -3.29565 | 30584 ft | 469 kts | 152° |
| 2026-04-24 02:41 | 54.58357 | -3.27111 | 30826 ft | 469 kts | 152° |
| 2026-04-24 02:41 | 54.55420 | -3.24658 | 31063 ft | 469 kts | 152° |
| 2026-04-24 02:42 | 54.52485 | -3.22217 | 31297 ft | 469 kts | 152° |
| 2026-04-24 02:42 | 54.49540 | -3.19775 | 31519 ft | 470 kts | 152° |
| 2026-04-24 02:42 | 54.46593 | -3.17336 | 31731 ft | 470 kts | 152° |
| 2026-04-24 02:42 | 54.43646 | -3.14898 | 31973 ft | 471 kts | 152° |
| 2026-04-24 02:43 | 54.40686 | -3.12453 | 32211 ft | 471 kts | 152° |
| 2026-04-24 02:43 | 54.37732 | -3.10015 | 32450 ft | 470 kts | 152° |
| 2026-04-24 02:43 | 54.34780 | -3.07584 | 32693 ft | 470 kts | 152° |
| 2026-04-24 02:43 | 54.31836 | -3.05166 | 32929 ft | 470 kts | 152° |
| 2026-04-24 02:44 | 54.28927 | -3.02784 | 33155 ft | 469 kts | 152° |
| 2026-04-24 02:44 | 54.25981 | -3.00373 | 33355 ft | 470 kts | 152° |
| 2026-04-24 02:44 | 54.20100 | -2.95557 | 33416 ft | 467 kts | 152° |
| 2026-04-24 02:45 | 54.14229 | -2.90849 | 33403 ft | 466 kts | 154° |
| 2026-04-24 02:45 | 54.08262 | -2.86505 | 33398 ft | 467 kts | 155° |
| 2026-04-24 02:46 | 54.02261 | -2.82288 | 33401 ft | 467 kts | 155° |
| 2026-04-24 02:46 | 53.96270 | -2.78005 | 33412 ft | 467 kts | 154° |
| 2026-04-24 02:47 | 53.90305 | -2.73681 | 33400 ft | 467 kts | 155° |
| 2026-04-24 02:47 | 53.84331 | -2.69344 | 33407 ft | 467 kts | 155° |
| 2026-04-24 02:48 | 53.78346 | -2.65089 | 33409 ft | 466 kts | 155° |
| 2026-04-24 02:48 | 53.72353 | -2.60848 | 33408 ft | 467 kts | 155° |
| 2026-04-24 02:49 | 53.66424 | -2.56636 | 33394 ft | 456 kts | 156° |
| 2026-04-24 02:49 | 53.60607 | -2.52498 | 33399 ft | 453 kts | 156° |
| 2026-04-24 02:50 | 53.54850 | -2.48398 | 33396 ft | 452 kts | 156° |
| 2026-04-24 02:50 | 53.49052 | -2.44269 | 33399 ft | 452 kts | 156° |
| 2026-04-24 02:51 | 53.43267 | -2.40120 | 33410 ft | 452 kts | 156° |
| 2026-04-24 02:51 | 53.38450 | -2.36703 | 33413 ft | 452 kts | 156° |
| 2026-04-24 02:52 | 53.32634 | -2.32622 | 33416 ft | 453 kts | 156° |
| 2026-04-24 02:52 | 53.26821 | -2.28575 | 33418 ft | 452 kts | 157° |
| 2026-04-24 02:53 | 53.21005 | -2.24534 | 33420 ft | 453 kts | 157° |
| 2026-04-24 02:53 | 53.15222 | -2.20402 | 33421 ft | 452 kts | 152° |
| 2026-04-24 02:54 | 53.10012 | -2.14604 | 33422 ft | 450 kts | 143° |
| 2026-04-24 02:54 | 53.04960 | -2.08444 | 33419 ft | 450 kts | 143° |
| 2026-04-24 02:55 | 52.99897 | -2.02307 | 33415 ft | 450 kts | 144° |
| 2026-04-24 02:55 | 52.94852 | -1.96190 | 33438 ft | 447 kts | 144° |
| 2026-04-24 02:56 | 52.89851 | -1.90146 | 33439 ft | 444 kts | 144° |
| 2026-04-24 02:56 | 52.84860 | -1.84144 | 33436 ft | 443 kts | 144° |
| 2026-04-24 02:57 | 52.79880 | -1.78171 | 33437 ft | 442 kts | 144° |
| 2026-04-24 02:57 | 52.74889 | -1.72272 | 33434 ft | 441 kts | 148° |
| 2026-04-24 02:58 | 52.69488 | -1.67470 | 32831 ft | 443 kts | 153° |
| 2026-04-24 02:58 | 52.66734 | -1.65104 | 31651 ft | 450 kts | 153° |
| 2026-04-24 02:58 | 52.63945 | -1.62704 | 30684 ft | 452 kts | 153° |
| 2026-04-24 02:59 | 52.61159 | -1.60307 | 29688 ft | 452 kts | 153° |
| 2026-04-24 02:59 | 52.58395 | -1.57937 | 28565 ft | 453 kts | 153° |
| 2026-04-24 02:59 | 52.55574 | -1.55520 | 27358 ft | 455 kts | 153° |
| 2026-04-24 02:59 | 52.52758 | -1.53112 | 26201 ft | 457 kts | 153° |
| 2026-04-24 03:00 | 52.49947 | -1.50714 | 25360 ft | 454 kts | 153° |
| 2026-04-24 03:00 | 52.47164 | -1.48346 | 24671 ft | 446 kts | 153° |
| 2026-04-24 03:00 | 52.44434 | -1.46029 | 24018 ft | 439 kts | 153° |
| 2026-04-24 03:00 | 52.41745 | -1.43746 | 23313 ft | 431 kts | 153° |
| 2026-04-24 03:01 | 52.39105 | -1.41505 | 22677 ft | 423 kts | 153° |
| 2026-04-24 03:01 | 52.36515 | -1.39306 | 22043 ft | 415 kts | 153° |
| 2026-04-24 03:01 | 52.33972 | -1.37150 | 21445 ft | 408 kts | 153° |
| 2026-04-24 03:01 | 52.31471 | -1.35037 | 20848 ft | 402 kts | 153° |
| 2026-04-24 03:02 | 52.29010 | -1.32953 | 20260 ft | 396 kts | 152° |
| 2026-04-24 03:02 | 52.26595 | -1.30789 | 19901 ft | 399 kts | 150° |
| 2026-04-24 03:02 | 52.24175 | -1.28511 | 19492 ft | 402 kts | 149° |
| 2026-04-24 03:02 | 52.21765 | -1.26188 | 19085 ft | 402 kts | 149° |
| 2026-04-24 03:03 | 52.19363 | -1.23863 | 18670 ft | 401 kts | 149° |
| 2026-04-24 03:03 | 52.16966 | -1.21556 | 18226 ft | 399 kts | 149° |
| 2026-04-24 03:03 | 52.14601 | -1.19307 | 17827 ft | 398 kts | 149° |
| 2026-04-24 03:03 | 52.12211 | -1.17057 | 17425 ft | 396 kts | 149° |
| 2026-04-24 03:04 | 52.09829 | -1.14831 | 17021 ft | 394 kts | 149° |
| 2026-04-24 03:04 | 52.07458 | -1.12626 | 16621 ft | 392 kts | 149° |
| 2026-04-24 03:04 | 52.05103 | -1.10418 | 16233 ft | 390 kts | 147° |
| 2026-04-24 03:04 | 52.02993 | -1.07707 | 15825 ft | 385 kts | 134° |
| 2026-04-24 03:05 | 52.01350 | -1.04320 | 15431 ft | 381 kts | 121° |
| 2026-04-24 03:05 | 52.00242 | -1.00431 | 15112 ft | 379 kts | 108° |
| 2026-04-24 03:05 | 51.99704 | -0.96255 | 14826 ft | 379 kts | 95° |
| 2026-04-24 03:05 | 51.99653 | -0.91978 | 14531 ft | 379 kts | 90° |
| 2026-04-24 03:06 | 51.99657 | -0.87703 | 14230 ft | 378 kts | 90° |
| 2026-04-24 03:06 | 51.99659 | -0.83453 | 13914 ft | 376 kts | 90° |
| 2026-04-24 03:06 | 51.99659 | -0.79229 | 13603 ft | 374 kts | 90° |
| 2026-04-24 03:06 | 51.99654 | -0.75017 | 13158 ft | 371 kts | 90° |
| 2026-04-24 03:07 | 51.99645 | -0.70787 | 12082 ft | 378 kts | 90° |
| 2026-04-24 03:07 | 51.99637 | -0.66612 | 11822 ft | 361 kts | 90° |
| 2026-04-24 03:07 | 51.99630 | -0.62651 | 11694 ft | 342 kts | 90° |
| 2026-04-24 03:07 | 51.99621 | -0.58886 | 11569 ft | 325 kts | 90° |
| 2026-04-24 03:08 | 51.99611 | -0.55308 | 11445 ft | 310 kts | 90° |
| 2026-04-24 03:08 | 51.99586 | -0.48619 | 11085 ft | 287 kts | 90° |
| 2026-04-24 03:08 | 51.99572 | -0.45394 | 10725 ft | 284 kts | 90° |
| 2026-04-24 03:09 | 51.99563 | -0.42268 | 10384 ft | 281 kts | 90° |
| 2026-04-24 03:09 | 51.99553 | -0.39098 | 10036 ft | 277 kts | 90° |
| 2026-04-24 03:09 | 51.99859 | -0.36052 | 9830 ft | 275 kts | 68° |
| 2026-04-24 03:09 | 52.00780 | -0.33319 | 9629 ft | 276 kts | 61° |
| 2026-04-24 03:10 | 52.01743 | -0.30620 | 9420 ft | 275 kts | 62° |
| 2026-04-24 03:10 | 52.02688 | -0.27918 | 9209 ft | 275 kts | 62° |
| 2026-04-24 03:10 | 52.03621 | -0.25218 | 9009 ft | 274 kts | 62° |
| 2026-04-24 03:10 | 52.04548 | -0.22517 | 8808 ft | 273 kts | 62° |
| 2026-04-24 03:11 | 52.05465 | -0.19818 | 8606 ft | 273 kts | 62° |
| 2026-04-24 03:11 | 52.06370 | -0.17146 | 8392 ft | 270 kts | 62° |
| 2026-04-24 03:11 | 52.07258 | -0.14523 | 8249 ft | 259 kts | 62° |
| 2026-04-24 03:11 | 52.08065 | -0.11968 | 8124 ft | 248 kts | 72° |
| 2026-04-24 03:12 | 52.08324 | -0.09284 | 7950 ft | 238 kts | 94° |
| 2026-04-24 03:12 | 52.07904 | -0.06721 | 7636 ft | 236 kts | 117° |
| 2026-04-24 03:12 | 52.06876 | -0.04663 | 7317 ft | 238 kts | 140° |
| 2026-04-24 03:12 | 52.05410 | -0.03442 | 6995 ft | 240 kts | 164° |
| 2026-04-24 03:13 | 52.03746 | -0.03301 | 6647 ft | 243 kts | 188° |
| 2026-04-24 03:13 | 52.02169 | -0.04256 | 6288 ft | 244 kts | 205° |
| 2026-04-24 03:13 | 52.00583 | -0.05127 | 5910 ft | 238 kts | 181° |
| 2026-04-24 03:13 | 51.98997 | -0.04682 | 5557 ft | 229 kts | 151° |
| 2026-04-24 03:14 | 51.97570 | -0.03533 | 5200 ft | 230 kts | 155° |
| 2026-04-24 03:14 | 51.96053 | -0.02721 | 4849 ft | 229 kts | 160° |
| 2026-04-24 03:14 | 51.94547 | -0.01964 | 4507 ft | 228 kts | 159° |
| 2026-04-24 03:14 | 51.93039 | -0.01203 | 4147 ft | 227 kts | 160° |
| 2026-04-24 03:15 | 51.91532 | -0.00449 | 3797 ft | 227 kts | 160° |
| 2026-04-24 03:15 | 51.89990 | 0.00114 | 3449 ft | 227 kts | 166° |
| 2026-04-24 03:15 | 51.88453 | 0.00564 | 3213 ft | 220 kts | 166° |
| 2026-04-24 03:15 | 51.86980 | 0.00981 | 3001 ft | 211 kts | 166° |
| 2026-04-24 03:16 | 51.85540 | 0.01384 | 2692 ft | 209 kts | 166° |
| 2026-04-24 03:16 | 51.84122 | 0.01779 | 2508 ft | 201 kts | 166° |
| 2026-04-24 03:16 | 51.82788 | 0.02141 | 2518 ft | 189 kts | 166° |
| 2026-04-24 03:16 | 51.81501 | 0.02485 | 2509 ft | 185 kts | 166° |
| 2026-04-24 03:17 | 51.80234 | 0.02827 | 2520 ft | 184 kts | 164° |
| 2026-04-24 03:17 | 51.79144 | 0.03725 | 2512 ft | 175 kts | 128° |
| 2026-04-24 03:17 | 51.78651 | 0.05460 | 2509 ft | 170 kts | 100° |
| 2026-04-24 03:17 | 51.78628 | 0.07355 | 2504 ft | 170 kts | 81° |
| 2026-04-24 03:18 | 51.79051 | 0.09134 | 2509 ft | 172 kts | 60° |
| 2026-04-24 03:18 | 51.79830 | 0.10513 | 2471 ft | 163 kts | 46° |
| 2026-04-24 03:18 | 51.80642 | 0.11723 | 2306 ft | 156 kts | 46° |
| 2026-04-24 03:18 | 51.81425 | 0.12892 | 2105 ft | 154 kts | 46° |
| 2026-04-24 03:19 | 51.82210 | 0.14065 | 1904 ft | 153 kts | 46° |
| 2026-04-24 03:19 | 51.82992 | 0.15233 | 1696 ft | 152 kts | 46° |
| 2026-04-24 03:19 | 51.83761 | 0.16381 | 1486 ft | 145 kts | 45° |
| 2026-04-24 03:19 | 51.84488 | 0.17469 | 1286 ft | 140 kts | 44° |
| 2026-04-24 03:20 | 51.85200 | 0.18535 | 1080 ft | 139 kts | 44° |
| 2026-04-24 03:20 | 51.85908 | 0.19595 | 867 ft | 139 kts | 43° |
| 2026-04-24 03:20 | 51.86621 | 0.20661 | 681 ft | 140 kts | 43° |
| 2026-04-24 03:20 | 51.87333 | 0.21728 | 482 ft | 140 kts | 42° |
| 2026-04-24 03:21 | 51.88043 | 0.22792 | 335 ft | 135 kts | 43° |
| 2026-04-24 03:21 | 51.88628 | 0.23672 | 337 ft | 91 kts | 43° |
| 2026-04-24 03:21 | 51.88964 | 0.24174 | 356 ft | 36 kts | 42° |
| 2026-04-24 03:21 | 51.89069 | 0.24409 | 349 ft | 22 kts | 66° |
| 2026-04-24 03:22 | 51.89127 | 0.24635 | 351 ft | 16 kts | 67° |
| 2026-04-24 03:22 | 51.89162 | 0.24774 | 348 ft | 9 kts | 69° |
| 2026-04-24 03:22 | 51.89157 | 0.24884 | 351 ft | 10 kts | 106° |
| 2026-04-24 03:22 | 51.89169 | 0.24965 | 355 ft | 13 kts | 53° |
| 2026-04-24 03:23 | 51.89233 | 0.25099 | 357 ft | 15 kts | 66° |
| 2026-04-24 03:23 | 51.89198 | 0.25245 | 362 ft | 12 kts | 131° |
| 2026-04-24 03:23 | 51.89130 | 0.25321 | 360 ft | 13 kts | 134° |
| 2026-04-24 03:23 | 51.89084 | 0.25400 | 358 ft | 8 kts | 133° |
| 2026-04-24 03:24 | 51.89043 | 0.25469 | 352 ft | 8 kts | 133° |
| 2026-04-24 03:24 | 51.89007 | 0.25533 | 358 ft | 7 kts | 133° |
| 2026-04-24 03:24 | 51.88990 | 0.25558 | 352 ft | 2 kts | 150° |
| 2026-04-24 03:24 | 51.88977 | 0.25548 | 352 ft | 2 kts | 223° |
| 2026-04-24 03:25 | 51.88969 | 0.25536 | 352 ft | 0 kts | 225° |
| 2026-04-24 03:25 | 51.88968 | 0.25533 | 352 ft | 2 kts | 224° |
| 2026-04-24 03:25 | 51.88954 | 0.25512 | 360 ft | 3 kts | 223° |
| 2026-04-24 03:25 | 51.88949 | 0.25505 | 352 ft | 0 kts | 223° |